sensor_id;sensor_type;location;lat;lon;timestamp;temperature;humidity
46608;DHT22;32330;51.936;7.184;2023-07-20T00:01:24;17.30;91.90
46608;DHT22;32330;51.936;7.184;2023-07-20T00:03:51;17.40;91.30
46608;DHT22;32330;51.936;7.184;2023-07-20T00:06:21;17.40;91.80
46608;DHT22;32330;51.936;7.184;2023-07-20T00:08:49;17.40;91.20
46608;DHT22;32330;51.936;7.184;2023-07-20T00:11:18;17.40;91.10
46608;DHT22;32330;51.936;7.184;2023-07-20T00:13:46;17.40;91.10
46608;DHT22;32330;51.936;7.184;2023-07-20T00:16:13;17.40;90.70
46608;DHT22;32330;51.936;7.184;2023-07-20T00:18:42;17.40;91.40
46608;DHT22;32330;51.936;7.184;2023-07-20T00:21:09;17.40;91.40
46608;DHT22;32330;51.936;7.184;2023-07-20T00:23:38;17.40;90.70
46608;DHT22;32330;51.936;7.184;2023-07-20T00:26:05;17.40;88.30
46608;DHT22;32330;51.936;7.184;2023-07-20T00:28:32;17.40;88.20
46608;DHT22;32330;51.936;7.184;2023-07-20T00:30:59;17.40;90.30
46608;DHT22;32330;51.936;7.184;2023-07-20T00:33:27;17.30;88.90
46608;DHT22;32330;51.936;7.184;2023-07-20T00:35:55;17.40;89.60
46608;DHT22;32330;51.936;7.184;2023-07-20T00:38:22;17.40;90.00
46608;DHT22;32330;51.936;7.184;2023-07-20T00:40:49;17.30;90.00
46608;DHT22;32330;51.936;7.184;2023-07-20T00:43:17;17.30;88.60
46608;DHT22;32330;51.936;7.184;2023-07-20T00:45:45;17.30;85.40
46608;DHT22;32330;51.936;7.184;2023-07-20T00:48:14;17.30;90.70
46608;DHT22;32330;51.936;7.184;2023-07-20T00:50:45;17.20;92.00
46608;DHT22;32330;51.936;7.184;2023-07-20T00:53:15;17.20;92.30
46608;DHT22;32330;51.936;7.184;2023-07-20T00:55:43;17.30;92.30
46608;DHT22;32330;51.936;7.184;2023-07-20T00:58:10;17.10;94.10
46608;DHT22;32330;51.936;7.184;2023-07-20T01:00:37;17.10;94.60
46608;DHT22;32330;51.936;7.184;2023-07-20T01:03:05;17.20;93.50
46608;DHT22;32330;51.936;7.184;2023-07-20T01:05:38;17.10;94.30
46608;DHT22;32330;51.936;7.184;2023-07-20T01:08:13;17.20;94.90
46608;DHT22;32330;51.936;7.184;2023-07-20T01:10:50;17.20;94.60
46608;DHT22;32330;51.936;7.184;2023-07-20T01:13:21;17.10;95.60
46608;DHT22;32330;51.936;7.184;2023-07-20T01:15:56;17.10;95.60
46608;DHT22;32330;51.936;7.184;2023-07-20T01:18:27;17.10;95.50
46608;DHT22;32330;51.936;7.184;2023-07-20T01:20:59;17.10;94.60
46608;DHT22;32330;51.936;7.184;2023-07-20T01:23:47;17.10;95.10
46608;DHT22;32330;51.936;7.184;2023-07-20T01:29:42;17.10;95.00
46608;DHT22;32330;51.936;7.184;2023-07-20T01:32:12;17.10;94.40
46608;DHT22;32330;51.936;7.184;2023-07-20T01:34:40;17.10;94.10
46608;DHT22;32330;51.936;7.184;2023-07-20T01:37:10;17.10;93.90
46608;DHT22;32330;51.936;7.184;2023-07-20T01:39:38;17.10;93.60
46608;DHT22;32330;51.936;7.184;2023-07-20T01:42:05;17.10;93.70
46608;DHT22;32330;51.936;7.184;2023-07-20T01:44:33;17.10;93.70
46608;DHT22;32330;51.936;7.184;2023-07-20T01:47:00;17.10;93.10
46608;DHT22;32330;51.936;7.184;2023-07-20T01:49:28;17.20;93.10
46608;DHT22;32330;51.936;7.184;2023-07-20T01:51:55;17.10;93.70
46608;DHT22;32330;51.936;7.184;2023-07-20T01:54:23;17.00;94.50
46608;DHT22;32330;51.936;7.184;2023-07-20T01:56:53;17.00;95.50
46608;DHT22;32330;51.936;7.184;2023-07-20T01:59:20;17.00;95.70
46608;DHT22;32330;51.936;7.184;2023-07-20T02:01:47;17.00;95.60
46608;DHT22;32330;51.936;7.184;2023-07-20T02:04:17;16.90;95.70
46608;DHT22;32330;51.936;7.184;2023-07-20T02:06:45;16.80;94.20
46608;DHT22;32330;51.936;7.184;2023-07-20T02:09:12;16.60;92.00
46608;DHT22;32330;51.936;7.184;2023-07-20T02:11:40;16.40;93.50
46608;DHT22;32330;51.936;7.184;2023-07-20T02:14:07;16.40;93.40
46608;DHT22;32330;51.936;7.184;2023-07-20T02:16:34;16.30;93.50
46608;DHT22;32330;51.936;7.184;2023-07-20T02:19:01;16.30;94.30
46608;DHT22;32330;51.936;7.184;2023-07-20T02:21:30;16.30;95.00
46608;DHT22;32330;51.936;7.184;2023-07-20T02:24:00;16.30;94.70
46608;DHT22;32330;51.936;7.184;2023-07-20T02:26:27;16.20;96.00
46608;DHT22;32330;51.936;7.184;2023-07-20T02:28:55;16.20;95.80
46608;DHT22;32330;51.936;7.184;2023-07-20T02:31:22;16.30;94.80
46608;DHT22;32330;51.936;7.184;2023-07-20T02:33:49;16.30;93.90
46608;DHT22;32330;51.936;7.184;2023-07-20T02:36:17;16.40;93.30
46608;DHT22;32330;51.936;7.184;2023-07-20T02:38:45;16.40;93.90
46608;DHT22;32330;51.936;7.184;2023-07-20T02:41:14;16.50;93.90
46608;DHT22;32330;51.936;7.184;2023-07-20T02:43:41;16.40;94.60
46608;DHT22;32330;51.936;7.184;2023-07-20T02:46:08;16.50;94.90
46608;DHT22;32330;51.936;7.184;2023-07-20T02:48:36;16.50;93.60
46608;DHT22;32330;51.936;7.184;2023-07-20T02:51:03;16.50;94.00
46608;DHT22;32330;51.936;7.184;2023-07-20T02:53:30;16.50;94.20
46608;DHT22;32330;51.936;7.184;2023-07-20T02:55:57;16.40;94.20
46608;DHT22;32330;51.936;7.184;2023-07-20T02:58:26;16.30;94.10
46608;DHT22;32330;51.936;7.184;2023-07-20T03:00:53;16.20;93.90
46608;DHT22;32330;51.936;7.184;2023-07-20T03:03:20;16.00;95.30
46608;DHT22;32330;51.936;7.184;2023-07-20T03:05:47;16.00;96.00
46608;DHT22;32330;51.936;7.184;2023-07-20T03:08:20;16.00;95.10
46608;DHT22;32330;51.936;7.184;2023-07-20T03:10:47;16.00;95.00
46608;DHT22;32330;51.936;7.184;2023-07-20T03:13:15;16.10;94.70
46608;DHT22;32330;51.936;7.184;2023-07-20T03:15:43;16.10;95.60
46608;DHT22;32330;51.936;7.184;2023-07-20T03:18:11;16.00;96.00
46608;DHT22;32330;51.936;7.184;2023-07-20T03:20:41;15.90;96.80
46608;DHT22;32330;51.936;7.184;2023-07-20T03:23:08;16.00;96.90
46608;DHT22;32330;51.936;7.184;2023-07-20T03:25:35;16.00;96.80
46608;DHT22;32330;51.936;7.184;2023-07-20T03:28:03;16.10;96.10
46608;DHT22;32330;51.936;7.184;2023-07-20T03:30:31;16.10;95.20
46608;DHT22;32330;51.936;7.184;2023-07-20T03:33:00;16.10;96.30
46608;DHT22;32330;51.936;7.184;2023-07-20T03:35:29;16.10;96.60
46608;DHT22;32330;51.936;7.184;2023-07-20T03:37:56;16.00;96.10
46608;DHT22;32330;51.936;7.184;2023-07-20T03:40:26;15.90;97.20
46608;DHT22;32330;51.936;7.184;2023-07-20T03:42:54;15.90;97.50
46608;DHT22;32330;51.936;7.184;2023-07-20T03:45:21;16.00;97.30
46608;DHT22;32330;51.936;7.184;2023-07-20T03:47:49;15.90;96.50
46608;DHT22;32330;51.936;7.184;2023-07-20T03:50:18;15.80;98.20
46608;DHT22;32330;51.936;7.184;2023-07-20T03:52:46;15.90;98.70
46608;DHT22;32330;51.936;7.184;2023-07-20T03:55:13;15.90;98.30
46608;DHT22;32330;51.936;7.184;2023-07-20T03:57:41;15.80;97.30
46608;DHT22;32330;51.936;7.184;2023-07-20T04:00:09;15.90;98.40
46608;DHT22;32330;51.936;7.184;2023-07-20T04:02:40;15.90;97.50
46608;DHT22;32330;51.936;7.184;2023-07-20T04:05:08;15.90;97.70
46608;DHT22;32330;51.936;7.184;2023-07-20T04:07:36;15.90;98.00
46608;DHT22;32330;51.936;7.184;2023-07-20T04:10:04;16.00;97.00
46608;DHT22;32330;51.936;7.184;2023-07-20T04:12:31;16.00;96.80
46608;DHT22;32330;51.936;7.184;2023-07-20T04:14:59;16.00;96.50
46608;DHT22;32330;51.936;7.184;2023-07-20T04:17:30;16.10;96.20
46608;DHT22;32330;51.936;7.184;2023-07-20T04:19:57;16.00;95.90
46608;DHT22;32330;51.936;7.184;2023-07-20T04:22:24;16.00;95.90
46608;DHT22;32330;51.936;7.184;2023-07-20T04:24:54;16.00;95.50
46608;DHT22;32330;51.936;7.184;2023-07-20T04:27:22;16.00;95.20
46608;DHT22;32330;51.936;7.184;2023-07-20T04:29:49;16.00;96.20
46608;DHT22;32330;51.936;7.184;2023-07-20T04:32:16;16.00;95.00
46608;DHT22;32330;51.936;7.184;2023-07-20T04:34:44;16.00;94.80
46608;DHT22;32330;51.936;7.184;2023-07-20T04:37:11;16.00;95.10
46608;DHT22;32330;51.936;7.184;2023-07-20T04:39:39;16.10;95.30
46608;DHT22;32330;51.936;7.184;2023-07-20T04:42:12;16.00;95.70
46608;DHT22;32330;51.936;7.184;2023-07-20T04:44:40;16.00;95.80
46608;DHT22;32330;51.936;7.184;2023-07-20T04:47:08;16.00;96.50
46608;DHT22;32330;51.936;7.184;2023-07-20T04:49:53;15.90;95.60
46608;DHT22;32330;51.936;7.184;2023-07-20T04:52:43;15.80;98.40
46608;DHT22;32330;51.936;7.184;2023-07-20T04:55:55;15.90;98.50
46608;DHT22;32330;51.936;7.184;2023-07-20T04:58:25;15.80;97.50
46608;DHT22;32330;51.936;7.184;2023-07-20T05:00:54;15.80;97.50
46608;DHT22;32330;51.936;7.184;2023-07-20T05:03:22;15.80;96.90
46608;DHT22;32330;51.936;7.184;2023-07-20T05:05:52;15.80;96.50
46608;DHT22;32330;51.936;7.184;2023-07-20T05:08:20;15.80;94.40
46608;DHT22;32330;51.936;7.184;2023-07-20T05:10:48;15.80;94.60
46608;DHT22;32330;51.936;7.184;2023-07-20T05:13:17;15.80;95.40
46608;DHT22;32330;51.936;7.184;2023-07-20T05:15:51;15.80;94.70
46608;DHT22;32330;51.936;7.184;2023-07-20T05:18:23;16.00;95.00
46608;DHT22;32330;51.936;7.184;2023-07-20T05:20:51;16.20;94.20
46608;DHT22;32330;51.936;7.184;2023-07-20T05:23:21;16.30;94.10
46608;DHT22;32330;51.936;7.184;2023-07-20T05:25:54;16.30;91.70
46608;DHT22;32330;51.936;7.184;2023-07-20T05:28:21;16.40;93.70
46608;DHT22;32330;51.936;7.184;2023-07-20T05:30:50;16.30;86.60
46608;DHT22;32330;51.936;7.184;2023-07-20T05:33:21;16.50;87.90
46608;DHT22;32330;51.936;7.184;2023-07-20T05:35:51;16.50;79.10
46608;DHT22;32330;51.936;7.184;2023-07-20T05:38:18;16.60;84.30
46608;DHT22;32330;51.936;7.184;2023-07-20T05:40:48;16.80;82.30
46608;DHT22;32330;51.936;7.184;2023-07-20T05:43:18;17.10;80.40
46608;DHT22;32330;51.936;7.184;2023-07-20T05:45:46;17.30;75.20
46608;DHT22;32330;51.936;7.184;2023-07-20T05:48:15;17.20;62.00
46608;DHT22;32330;51.936;7.184;2023-07-20T05:50:42;17.20;53.10
46608;DHT22;32330;51.936;7.184;2023-07-20T05:53:12;17.20;46.00
46608;DHT22;32330;51.936;7.184;2023-07-20T05:55:40;17.40;57.20
46608;DHT22;32330;51.936;7.184;2023-07-20T05:58:07;17.30;30.50
46608;DHT22;32330;51.936;7.184;2023-07-20T06:00:34;17.20;42.80
46608;DHT22;32330;51.936;7.184;2023-07-20T06:03:01;17.40;25.20
46608;DHT22;32330;51.936;7.184;2023-07-20T06:05:31;17.40;30.90
46608;DHT22;32330;51.936;7.184;2023-07-20T06:08:01;17.40;11.50
46608;DHT22;32330;51.936;7.184;2023-07-20T06:10:28;17.80;6.00
46608;DHT22;32330;51.936;7.184;2023-07-20T06:12:55;17.90;1.00
46608;DHT22;32330;51.936;7.184;2023-07-20T06:15:26;17.70;1.00
46608;DHT22;32330;51.936;7.184;2023-07-20T06:17:54;18.00;1.00
46608;DHT22;32330;51.936;7.184;2023-07-20T06:20:23;18.10;1.00
46608;DHT22;32330;51.936;7.184;2023-07-20T06:22:53;18.00;1.00
46608;DHT22;32330;51.936;7.184;2023-07-20T06:25:20;18.30;1.00
46608;DHT22;32330;51.936;7.184;2023-07-20T06:27:49;18.20;99.90
46608;DHT22;32330;51.936;7.184;2023-07-20T06:30:17;18.30;99.90
46608;DHT22;32330;51.936;7.184;2023-07-20T06:32:44;18.60;99.90
46608;DHT22;32330;51.936;7.184;2023-07-20T06:35:15;18.70;99.90
46608;DHT22;32330;51.936;7.184;2023-07-20T06:37:45;18.40;99.90
46608;DHT22;32330;51.936;7.184;2023-07-20T06:40:14;18.50;99.90
46608;DHT22;32330;51.936;7.184;2023-07-20T06:42:41;18.50;99.90
46608;DHT22;32330;51.936;7.184;2023-07-20T06:45:09;18.80;99.90
46608;DHT22;32330;51.936;7.184;2023-07-20T06:47:38;18.70;99.90
46608;DHT22;32330;51.936;7.184;2023-07-20T06:50:06;18.40;99.90
46608;DHT22;32330;51.936;7.184;2023-07-20T06:52:34;18.70;99.90
46608;DHT22;32330;51.936;7.184;2023-07-20T06:55:01;18.60;94.90
46608;DHT22;32330;51.936;7.184;2023-07-20T06:57:36;18.80;99.90
46608;DHT22;32330;51.936;7.184;2023-07-20T07:00:08;18.80;99.90
46608;DHT22;32330;51.936;7.184;2023-07-20T07:02:39;18.80;18.50
46608;DHT22;32330;51.936;7.184;2023-07-20T07:05:15;18.80;56.00
46608;DHT22;32330;51.936;7.184;2023-07-20T07:07:56;18.70;1.00
46608;DHT22;32330;51.936;7.184;2023-07-20T07:10:26;18.60;1.00
46608;DHT22;32330;51.936;7.184;2023-07-20T07:13:09;18.90;1.00
46608;DHT22;32330;51.936;7.184;2023-07-20T07:15:39;18.90;99.90
46608;DHT22;32330;51.936;7.184;2023-07-20T07:18:09;18.70;99.90
46608;DHT22;32330;51.936;7.184;2023-07-20T07:20:39;18.50;99.90
46608;DHT22;32330;51.936;7.184;2023-07-20T07:25:54;19.20;99.90
46608;DHT22;32330;51.936;7.184;2023-07-20T07:28:22;18.90;40.10
46608;DHT22;32330;51.936;7.184;2023-07-20T07:30:49;19.30;99.90
46608;DHT22;32330;51.936;7.184;2023-07-20T07:33:16;19.70;63.10
46608;DHT22;32330;51.936;7.184;2023-07-20T07:35:43;19.80;99.90
46608;DHT22;32330;51.936;7.184;2023-07-20T07:38:10;19.90;99.90
46608;DHT22;32330;51.936;7.184;2023-07-20T07:40:36;20.20;1.00
46608;DHT22;32330;51.936;7.184;2023-07-20T07:43:03;20.50;99.90
46608;DHT22;32330;51.936;7.184;2023-07-20T07:45:34;20.40;99.90
46608;DHT22;32330;51.936;7.184;2023-07-20T07:48:02;20.20;99.90
46608;DHT22;32330;51.936;7.184;2023-07-20T07:50:29;20.50;99.90
46608;DHT22;32330;51.936;7.184;2023-07-20T07:52:56;20.80;99.90
46608;DHT22;32330;51.936;7.184;2023-07-20T07:55:24;20.30;99.90
46608;DHT22;32330;51.936;7.184;2023-07-20T07:57:52;20.10;99.90
46608;DHT22;32330;51.936;7.184;2023-07-20T08:00:19;20.30;1.00
46608;DHT22;32330;51.936;7.184;2023-07-20T08:02:50;20.70;1.00
46608;DHT22;32330;51.936;7.184;2023-07-20T08:05:17;21.10;99.90
46608;DHT22;32330;51.936;7.184;2023-07-20T08:07:44;20.80;99.90
46608;DHT22;32330;51.936;7.184;2023-07-20T08:10:12;20.90;99.90
46608;DHT22;32330;51.936;7.184;2023-07-20T08:12:39;21.10;99.90
46608;DHT22;32330;51.936;7.184;2023-07-20T08:15:07;21.10;99.90
46608;DHT22;32330;51.936;7.184;2023-07-20T08:17:34;21.40;73.90
46608;DHT22;32330;51.936;7.184;2023-07-20T08:20:02;21.50;1.00
46608;DHT22;32330;51.936;7.184;2023-07-20T08:22:30;21.70;99.90
46608;DHT22;32330;51.936;7.184;2023-07-20T08:24:57;21.80;1.00
46608;DHT22;32330;51.936;7.184;2023-07-20T08:27:25;22.00;99.90
46608;DHT22;32330;51.936;7.184;2023-07-20T08:29:51;22.10;99.90
46608;DHT22;32330;51.936;7.184;2023-07-20T08:32:18;22.20;99.90
46608;DHT22;32330;51.936;7.184;2023-07-20T08:34:45;22.50;99.90
46608;DHT22;32330;51.936;7.184;2023-07-20T08:37:14;22.50;99.90
46608;DHT22;32330;51.936;7.184;2023-07-20T08:39:41;22.50;99.90
46608;DHT22;32330;51.936;7.184;2023-07-20T08:42:09;22.60;99.90
46608;DHT22;32330;51.936;7.184;2023-07-20T08:44:37;22.30;79.00
46608;DHT22;32330;51.936;7.184;2023-07-20T08:47:06;22.00;79.10
46608;DHT22;32330;51.936;7.184;2023-07-20T08:49:35;22.20;48.80
46608;DHT22;32330;51.936;7.184;2023-07-20T08:52:03;22.40;1.00
46608;DHT22;32330;51.936;7.184;2023-07-20T08:54:32;22.40;99.90
46608;DHT22;32330;51.936;7.184;2023-07-20T08:57:02;22.40;99.90
46608;DHT22;32330;51.936;7.184;2023-07-20T08:59:29;22.60;99.90
46608;DHT22;32330;51.936;7.184;2023-07-20T09:01:58;23.10;99.90
46608;DHT22;32330;51.936;7.184;2023-07-20T09:04:26;22.90;99.90
46608;DHT22;32330;51.936;7.184;2023-07-20T09:06:53;23.00;99.90
46608;DHT22;32330;51.936;7.184;2023-07-20T09:09:20;23.40;99.90
46608;DHT22;32330;51.936;7.184;2023-07-20T09:11:49;23.40;99.90
46608;DHT22;32330;51.936;7.184;2023-07-20T09:14:16;23.00;99.90
46608;DHT22;32330;51.936;7.184;2023-07-20T09:16:47;22.90;99.90
46608;DHT22;32330;51.936;7.184;2023-07-20T09:19:15;23.20;99.90
46608;DHT22;32330;51.936;7.184;2023-07-20T09:21:44;23.10;99.90
46608;DHT22;32330;51.936;7.184;2023-07-20T09:24:12;23.40;99.90
46608;DHT22;32330;51.936;7.184;2023-07-20T09:26:44;23.70;99.90
46608;DHT22;32330;51.936;7.184;2023-07-20T09:29:12;24.10;99.90
46608;DHT22;32330;51.936;7.184;2023-07-20T09:31:39;24.30;66.70
46608;DHT22;32330;51.936;7.184;2023-07-20T09:34:07;24.50;50.40
46608;DHT22;32330;51.936;7.184;2023-07-20T09:36:35;24.30;92.30
46608;DHT22;32330;51.936;7.184;2023-07-20T09:39:03;23.90;84.10
46608;DHT22;32330;51.936;7.184;2023-07-20T09:41:31;23.60;58.70
46608;DHT22;32330;51.936;7.184;2023-07-20T09:44:32;23.20;25.40
46608;DHT22;32330;51.936;7.184;2023-07-20T09:46:59;23.40;1.00
46608;DHT22;32330;51.936;7.184;2023-07-20T09:49:27;23.30;1.00
46608;DHT22;32330;51.936;7.184;2023-07-20T09:51:55;23.50;1.00
46608;DHT22;32330;51.936;7.184;2023-07-20T09:54:24;23.90;1.00
46608;DHT22;32330;51.936;7.184;2023-07-20T09:57:13;24.40;1.00
46608;DHT22;32330;51.936;7.184;2023-07-20T09:59:42;23.70;99.90
46608;DHT22;32330;51.936;7.184;2023-07-20T10:02:20;23.40;99.90
46608;DHT22;32330;51.936;7.184;2023-07-20T10:04:49;23.80;1.00
46608;DHT22;32330;51.936;7.184;2023-07-20T10:07:17;24.30;1.00
46608;DHT22;32330;51.936;7.184;2023-07-20T10:09:48;24.60;1.00
46608;DHT22;32330;51.936;7.184;2023-07-20T10:12:16;24.80;99.90
46608;DHT22;32330;51.936;7.184;2023-07-20T10:14:57;25.00;99.90
46608;DHT22;32330;51.936;7.184;2023-07-20T10:17:26;24.80;99.90
46608;DHT22;32330;51.936;7.184;2023-07-20T10:19:56;24.10;99.90
46608;DHT22;32330;51.936;7.184;2023-07-20T10:22:25;24.00;99.90
46608;DHT22;32330;51.936;7.184;2023-07-20T10:24:54;24.40;99.90
46608;DHT22;32330;51.936;7.184;2023-07-20T10:27:23;24.60;99.90
46608;DHT22;32330;51.936;7.184;2023-07-20T10:29:53;24.50;99.90
46608;DHT22;32330;51.936;7.184;2023-07-20T10:32:21;24.50;99.90
46608;DHT22;32330;51.936;7.184;2023-07-20T10:34:50;25.10;99.90
46608;DHT22;32330;51.936;7.184;2023-07-20T10:37:48;25.10;99.90
46608;DHT22;32330;51.936;7.184;2023-07-20T10:40:30;24.70;99.90
46608;DHT22;32330;51.936;7.184;2023-07-20T10:43:03;25.20;99.90
46608;DHT22;32330;51.936;7.184;2023-07-20T10:45:40;25.60;99.90
46608;DHT22;32330;51.936;7.184;2023-07-20T10:48:13;25.80;99.90
46608;DHT22;32330;51.936;7.184;2023-07-20T10:50:41;25.90;99.90
46608;DHT22;32330;51.936;7.184;2023-07-20T10:53:13;26.20;99.90
46608;DHT22;32330;51.936;7.184;2023-07-20T10:55:41;26.20;99.90
46608;DHT22;32330;51.936;7.184;2023-07-20T10:58:13;26.50;99.90
46608;DHT22;32330;51.936;7.184;2023-07-20T11:01:02;26.70;99.90
46608;DHT22;32330;51.936;7.184;2023-07-20T11:03:31;26.50;99.90
46608;DHT22;32330;51.936;7.184;2023-07-20T11:05:58;26.50;99.90
46608;DHT22;32330;51.936;7.184;2023-07-20T11:08:38;26.70;99.90
46608;DHT22;32330;51.936;7.184;2023-07-20T11:11:22;26.50;99.90
46608;DHT22;32330;51.936;7.184;2023-07-20T11:13:56;26.60;99.90
46608;DHT22;32330;51.936;7.184;2023-07-20T11:16:36;26.50;99.90
46608;DHT22;32330;51.936;7.184;2023-07-20T11:19:05;26.10;99.90
46608;DHT22;32330;51.936;7.184;2023-07-20T11:21:37;25.60;99.90
46608;DHT22;32330;51.936;7.184;2023-07-20T11:24:05;26.40;99.90
46608;DHT22;32330;51.936;7.184;2023-07-20T11:26:43;26.80;99.90
46608;DHT22;32330;51.936;7.184;2023-07-20T11:29:11;27.30;99.90
46608;DHT22;32330;51.936;7.184;2023-07-20T11:31:41;27.20;99.90
46608;DHT22;32330;51.936;7.184;2023-07-20T11:34:10;27.20;99.90
46608;DHT22;32330;51.936;7.184;2023-07-20T11:36:39;27.00;95.20
46608;DHT22;32330;51.936;7.184;2023-07-20T11:39:07;27.20;92.20
46608;DHT22;32330;51.936;7.184;2023-07-20T11:41:34;26.60;50.20
46608;DHT22;32330;51.936;7.184;2023-07-20T11:44:02;27.00;83.50
46608;DHT22;32330;51.936;7.184;2023-07-20T11:46:29;27.00;61.00
46608;DHT22;32330;51.936;7.184;2023-07-20T11:48:58;27.50;61.90
46608;DHT22;32330;51.936;7.184;2023-07-20T11:51:28;27.30;43.10
46608;DHT22;32330;51.936;7.184;2023-07-20T11:53:55;27.70;30.40
46608;DHT22;32330;51.936;7.184;2023-07-20T11:56:23;27.90;31.70
46608;DHT22;32330;51.936;7.184;2023-07-20T11:58:50;27.80;47.60
46608;DHT22;32330;51.936;7.184;2023-07-20T12:01:18;28.20;38.80
46608;DHT22;32330;51.936;7.184;2023-07-20T12:03:48;28.10;23.20
46608;DHT22;32330;51.936;7.184;2023-07-20T12:06:17;28.10;2.00
46608;DHT22;32330;51.936;7.184;2023-07-20T12:08:44;27.90;1.00
46608;DHT22;32330;51.936;7.184;2023-07-20T12:11:11;28.00;1.00
46608;DHT22;32330;51.936;7.184;2023-07-20T12:13:40;27.90;1.00
46608;DHT22;32330;51.936;7.184;2023-07-20T12:16:12;27.60;1.00
46608;DHT22;32330;51.936;7.184;2023-07-20T12:18:40;27.50;1.00
46608;DHT22;32330;51.936;7.184;2023-07-20T12:21:07;27.10;1.00
46608;DHT22;32330;51.936;7.184;2023-07-20T12:23:37;26.70;1.00
46608;DHT22;32330;51.936;7.184;2023-07-20T12:26:06;27.20;1.00
46608;DHT22;32330;51.936;7.184;2023-07-20T12:28:38;27.30;1.00
46608;DHT22;32330;51.936;7.184;2023-07-20T12:31:06;27.70;1.00
46608;DHT22;32330;51.936;7.184;2023-07-20T12:33:34;27.60;99.90
46608;DHT22;32330;51.936;7.184;2023-07-20T12:36:01;27.60;99.90
46608;DHT22;32330;51.936;7.184;2023-07-20T12:38:28;28.10;99.90
46608;DHT22;32330;51.936;7.184;2023-07-20T12:40:58;28.40;99.90
46608;DHT22;32330;51.936;7.184;2023-07-20T12:43:26;28.30;1.00
46608;DHT22;32330;51.936;7.184;2023-07-20T12:45:53;28.10;99.90
46608;DHT22;32330;51.936;7.184;2023-07-20T12:48:20;28.10;99.90
46608;DHT22;32330;51.936;7.184;2023-07-20T12:50:47;27.60;99.90
46608;DHT22;32330;51.936;7.184;2023-07-20T12:53:15;27.30;99.90
46608;DHT22;32330;51.936;7.184;2023-07-20T12:55:43;27.70;99.90
46608;DHT22;32330;51.936;7.184;2023-07-20T12:58:12;28.10;99.90
46608;DHT22;32330;51.936;7.184;2023-07-20T13:00:39;28.30;99.90
46608;DHT22;32330;51.936;7.184;2023-07-20T13:03:06;27.70;99.90
46608;DHT22;32330;51.936;7.184;2023-07-20T13:05:34;27.30;99.90
46608;DHT22;32330;51.936;7.184;2023-07-20T13:08:01;27.20;99.90
46608;DHT22;32330;51.936;7.184;2023-07-20T13:10:29;27.30;99.90
46608;DHT22;32330;51.936;7.184;2023-07-20T13:12:56;27.90;99.90
46608;DHT22;32330;51.936;7.184;2023-07-20T13:15:29;28.20;99.90
46608;DHT22;32330;51.936;7.184;2023-07-20T13:17:58;28.40;99.90
46608;DHT22;32330;51.936;7.184;2023-07-20T13:20:26;27.70;99.90
46608;DHT22;32330;51.936;7.184;2023-07-20T13:22:53;27.10;99.90
46608;DHT22;32330;51.936;7.184;2023-07-20T13:25:20;27.10;99.90
46608;DHT22;32330;51.936;7.184;2023-07-20T13:27:47;26.80;99.90
46608;DHT22;32330;51.936;7.184;2023-07-20T13:30:14;26.30;99.90
46608;DHT22;32330;51.936;7.184;2023-07-20T13:32:44;26.40;99.90
46608;DHT22;32330;51.936;7.184;2023-07-20T13:35:11;26.80;99.90
46608;DHT22;32330;51.936;7.184;2023-07-20T13:37:38;27.20;99.90
46608;DHT22;32330;51.936;7.184;2023-07-20T13:40:07;27.10;99.90
46608;DHT22;32330;51.936;7.184;2023-07-20T13:42:37;27.20;99.90
46608;DHT22;32330;51.936;7.184;2023-07-20T13:45:06;27.30;99.90
46608;DHT22;32330;51.936;7.184;2023-07-20T13:47:33;27.50;99.90
46608;DHT22;32330;51.936;7.184;2023-07-20T13:50:02;27.40;99.90
46608;DHT22;32330;51.936;7.184;2023-07-20T13:52:41;27.50;99.90
46608;DHT22;32330;51.936;7.184;2023-07-20T13:55:08;27.90;99.90
46608;DHT22;32330;51.936;7.184;2023-07-20T13:57:35;27.80;99.90
46608;DHT22;32330;51.936;7.184;2023-07-20T14:00:02;28.00;99.90
46608;DHT22;32330;51.936;7.184;2023-07-20T14:02:37;27.90;99.90
46608;DHT22;32330;51.936;7.184;2023-07-20T14:05:06;27.30;99.90
46608;DHT22;32330;51.936;7.184;2023-07-20T14:07:35;27.30;99.90
46608;DHT22;32330;51.936;7.184;2023-07-20T14:10:03;27.60;99.90
46608;DHT22;32330;51.936;7.184;2023-07-20T14:12:30;27.80;99.90
46608;DHT22;32330;51.936;7.184;2023-07-20T14:14:57;28.10;99.90
46608;DHT22;32330;51.936;7.184;2023-07-20T14:17:24;28.10;99.90
46608;DHT22;32330;51.936;7.184;2023-07-20T14:19:53;28.10;99.90
46608;DHT22;32330;51.936;7.184;2023-07-20T14:22:21;28.30;99.90
46608;DHT22;32330;51.936;7.184;2023-07-20T14:24:48;28.40;99.90
46608;DHT22;32330;51.936;7.184;2023-07-20T14:27:15;28.20;99.90
46608;DHT22;32330;51.936;7.184;2023-07-20T14:29:42;28.40;99.90
46608;DHT22;32330;51.936;7.184;2023-07-20T14:32:09;28.40;99.90
46608;DHT22;32330;51.936;7.184;2023-07-20T14:34:37;28.80;99.90
46608;DHT22;32330;51.936;7.184;2023-07-20T14:37:05;28.20;99.90
46608;DHT22;32330;51.936;7.184;2023-07-20T14:39:33;27.70;99.90
46608;DHT22;32330;51.936;7.184;2023-07-20T14:42:00;27.40;99.90
46608;DHT22;32330;51.936;7.184;2023-07-20T14:44:27;27.20;99.90
46608;DHT22;32330;51.936;7.184;2023-07-20T14:46:54;26.90;99.90
46608;DHT22;32330;51.936;7.184;2023-07-20T14:49:22;26.90;99.90
46608;DHT22;32330;51.936;7.184;2023-07-20T14:51:49;26.90;99.90
46608;DHT22;32330;51.936;7.184;2023-07-20T14:54:16;26.60;99.90
46608;DHT22;32330;51.936;7.184;2023-07-20T14:56:50;26.40;99.90
46608;DHT22;32330;51.936;7.184;2023-07-20T14:59:19;26.10;99.90
46608;DHT22;32330;51.936;7.184;2023-07-20T15:01:46;26.00;99.90
46608;DHT22;32330;51.936;7.184;2023-07-20T15:04:13;26.10;99.90
46608;DHT22;32330;51.936;7.184;2023-07-20T15:06:40;25.60;99.90
46608;DHT22;32330;51.936;7.184;2023-07-20T15:09:07;25.40;99.90
46608;DHT22;32330;51.936;7.184;2023-07-20T15:11:36;25.50;99.90
46608;DHT22;32330;51.936;7.184;2023-07-20T15:14:04;26.10;99.90
46608;DHT22;32330;51.936;7.184;2023-07-20T15:16:31;26.80;99.90
46608;DHT22;32330;51.936;7.184;2023-07-20T15:18:58;27.40;99.90
46608;DHT22;32330;51.936;7.184;2023-07-20T15:21:25;27.70;99.90
46608;DHT22;32330;51.936;7.184;2023-07-20T15:23:56;27.30;99.90
46608;DHT22;32330;51.936;7.184;2023-07-20T15:26:23;27.40;99.90
46608;DHT22;32330;51.936;7.184;2023-07-20T15:28:50;27.10;99.90
46608;DHT22;32330;51.936;7.184;2023-07-20T15:31:19;26.90;99.90
46608;DHT22;32330;51.936;7.184;2023-07-20T15:33:48;26.80;99.90
46608;DHT22;32330;51.936;7.184;2023-07-20T15:36:15;26.80;99.90
46608;DHT22;32330;51.936;7.184;2023-07-20T15:38:42;26.90;99.90
46608;DHT22;32330;51.936;7.184;2023-07-20T15:41:09;27.20;99.90
46608;DHT22;32330;51.936;7.184;2023-07-20T15:43:37;27.10;99.90
46608;DHT22;32330;51.936;7.184;2023-07-20T15:49:18;26.30;99.90
46608;DHT22;32330;51.936;7.184;2023-07-20T15:51:45;26.00;99.90
46608;DHT22;32330;51.936;7.184;2023-07-20T15:54:14;25.50;99.90